Aeroporto :
LOGIN :

Iscrizione | Disclaimer

   EN    FR    IT 

 










Sommario :    VFR   VFR Marginale   IFR   IFR Intensivo   IFR Molto Intensivo
Visibilità : 
Base nubi : 
>= 8 km
>= 3000ft
5 / 8 km
1000 / 3000 ft
1500m / 5 km
500 / 1000 ft
800 / 1500m
200 / 500 ft
< 800m
< 200 ft
Simboli :   Temporali  Nebbia  Neve Forte  Precipitazioni Forti  Vento > 20 kt
SIGMETs :   Varie  Temporali  Ghiacco  Turbolenza  Onda orograficha  Ceneri Vulcaniche






- Altitudine del aeroporto : 741 ft
- Codice IATA : PED


LKPD - Pardubice AB

ULTIMO METAR :
  • 271530Z 25007KT 210V270 9999 TS SCT041CB SCT060 21/15 Q1016 NOSIG RMK BLU BLU

METARs OBSOLETI :
  • 271500Z 13010G20KT 100V160 9999 -TSRA SCT041CB SCT050 19/14 Q1016 NOSIG RMK BLU BLU
  • 271449Z 13007KT 100V160 9999 -TSRA FEW045CB SCT050 SCT090 22/12 Q1016 RMK BLU
  • 271430Z VRB03KT 9999 VCTS FEW045CB SCT050 SCT120 24/14 Q1016 NOSIG RMK BLU BLU
  • 271400Z 26004KT 220V310 9999 FEW045CB SCT050 SCT100 24/13 Q1017 RETS NOSIG RMK BLU BLU
  • 271341Z 26008KT 220V310 9999 TS FEW045CB SCT050 SCT110 24/14 Q1017 RMK BLU
  • 271330Z 25011KT 9999 FEW046CB SCT050 25/14 Q1016 NOSIG RMK BLU BLU
  • 271300Z 18010KT 9999 FEW049CB SCT050 25/12 Q1017 NOSIG RMK BLU BLU
  • 271247Z 19010KT 160V220 9999 FEW049CB SCT050 25/12 Q1017 RMK BLU
  • 271230Z 18010KT 150V220 CAVOK 25/13 Q1017 NOSIG RMK BLU BLU
  • 271200Z 18008KT 130V220 CAVOK 25/13 Q1017 NOSIG RMK BLU BLU
  • 271130Z 18010KT 130V210 CAVOK 25/13 Q1017 NOSIG RMK BLU BLU
  • 271100Z 20010KT 160V230 CAVOK 23/12 Q1018 NOSIG RMK BLU BLU

TAF TAF LKPD
Valido dal 27 a 12 ore il 28 a 12 ore UTC


271100Z 2712/2812 18010KT CAVOK
TEMPO 2712/2720 21015KT 7000 SHRA BKN030TCU
PROB40
TEMPO 2712/2719 22015G25KT 4000 TSRA BKN025CB
BECMG 2718/2721 12004KT
BECMG 2805/2807 20006KT BKN030
BECMG 2809/2811 28014KT
TEMPO 2809/2812 5000 RA BKN020
PROB30
TEMPO 2809/2812 4000 TSRA BKN018CB



MetMap, La meteo Aeronautica in un colpo d'occhio ! - Copyright ORBIFLY Dicembre 2007 - Disclaimer

ORBIFLY MET'MAP TEAM :

Programmazione e sviluppo : Alexandra Zaïnal
Concezione : Baudouin d'Aumeries
Supporto tecnico e logistico : Manuel Goepfert
Aiuto : Marc-Olivier Méhu
Aiuto per la traduzione : Arnaldo La Scala




FONTI E CREDITI :

   NOAA